createdAt,value
2023-02-15T00:00:35.080Z,2.5
2023-02-15T00:01:43.668Z,2.4
2023-02-15T00:02:51.940Z,2.4
2023-02-15T00:04:00.259Z,2.4
2023-02-15T00:05:08.790Z,2.2
2023-02-15T00:06:17.122Z,2.2
2023-02-15T00:07:25.491Z,2.2
2023-02-15T00:08:33.977Z,2.5
2023-02-15T00:09:42.290Z,2.5
2023-02-15T00:10:50.614Z,2.5
2023-02-15T00:11:59.151Z,2.5
2023-02-15T00:13:07.473Z,2.5
2023-02-15T00:14:15.787Z,2.5
2023-02-15T00:15:24.316Z,2.2
2023-02-15T00:16:32.705Z,2.2
2023-02-15T00:17:40.960Z,2.2
2023-02-15T00:18:49.486Z,2.4
2023-02-15T00:19:57.796Z,2.4
2023-02-15T00:21:06.112Z,2.4
2023-02-15T00:22:14.644Z,2.3
2023-02-15T00:23:22.976Z,2.3
2023-02-15T00:24:31.267Z,2.3
2023-02-15T00:25:39.793Z,2.4
2023-02-15T00:26:48.109Z,2.4
2023-02-15T00:27:56.412Z,2.4
2023-02-15T00:29:04.946Z,2.3
2023-02-15T00:30:13.308Z,2.3
2023-02-15T00:31:21.746Z,2.3
2023-02-15T00:32:30.151Z,2.1
2023-02-15T00:33:38.472Z,2.1
2023-02-15T00:34:46.783Z,2.1
2023-02-15T00:35:55.316Z,2.7
2023-02-15T00:37:03.662Z,2.7
2023-02-15T00:38:11.962Z,2.7
2023-02-15T00:39:20.523Z,2.6
2023-02-15T00:40:28.801Z,2.6
2023-02-15T00:41:37.138Z,2.6
2023-02-15T00:42:45.660Z,3.3
2023-02-15T00:43:53.985Z,3.3
2023-02-15T00:45:02.317Z,3.3
2023-02-15T00:46:10.867Z,3.1
2023-02-15T00:47:19.157Z,3.1
2023-02-15T00:48:27.508Z,3.1
2023-02-15T00:49:36.028Z,3.1
2023-02-15T00:50:44.364Z,3.1
2023-02-15T00:51:52.690Z,3.1
2023-02-15T00:53:01.221Z,3.1
2023-02-15T00:54:09.526Z,3.1
2023-02-15T00:55:17.867Z,3.1
2023-02-15T00:56:26.384Z,2.8
2023-02-15T00:57:34.703Z,2.8
2023-02-15T00:58:43.026Z,2.8
2023-02-15T00:59:51.553Z,2.4
2023-02-15T01:00:59.947Z,2.4
2023-02-15T01:02:08.223Z,2.4
2023-02-15T01:03:16.753Z,2.4
2023-02-15T01:04:25.124Z,2.4
2023-02-15T01:05:33.398Z,2.4
2023-02-15T01:06:41.912Z,2.3
2023-02-15T01:07:50.228Z,2.3
2023-02-15T01:08:58.537Z,2.3
2023-02-15T01:10:07.071Z,2.5
2023-02-15T01:11:15.416Z,2.5
2023-02-15T01:12:23.719Z,2.5
2023-02-15T01:13:32.233Z,2.6
2023-02-15T01:14:40.579Z,2.6
2023-02-15T01:15:48.918Z,2.6
2023-02-15T01:16:57.411Z,2.7
2023-02-15T01:18:05.735Z,2.7
2023-02-15T01:19:14.044Z,2.7
2023-02-15T01:20:22.573Z,2.8
2023-02-15T01:21:30.888Z,2.8
2023-02-15T01:22:39.218Z,2.8
2023-02-15T01:23:47.750Z,2.4
2023-02-15T01:24:56.077Z,2.4
2023-02-15T01:26:04.501Z,2.4
2023-02-15T01:27:12.954Z,2.7
2023-02-15T01:28:21.238Z,2.7
2023-02-15T01:29:29.565Z,2.7
2023-02-15T01:30:38.091Z,2.8
2023-02-15T01:31:46.496Z,2.8
2023-02-15T01:32:54.732Z,2.8
2023-02-15T01:34:03.266Z,2.8
2023-02-15T01:35:11.587Z,2.8
2023-02-15T01:36:19.902Z,2.8
2023-02-15T01:37:28.425Z,2.7
2023-02-15T01:38:36.746Z,2.7
2023-02-15T01:39:45.070Z,2.7
2023-02-15T01:40:53.611Z,3.1
2023-02-15T01:42:01.937Z,3.1
2023-02-15T01:43:10.274Z,3.1
2023-02-15T01:44:18.770Z,3.3
2023-02-15T01:45:27.083Z,3.3
2023-02-15T01:46:35.455Z,3.3
2023-02-15T01:47:43.957Z,3.1
2023-02-15T01:48:52.261Z,3.1
2023-02-15T01:50:00.578Z,3.1
2023-02-15T01:51:09.102Z,3.4
2023-02-15T01:52:17.443Z,3.4
2023-02-15T01:53:25.755Z,3.4
2023-02-15T01:54:34.268Z,3.9
2023-02-15T01:55:42.588Z,3.9
2023-02-15T01:56:50.920Z,3.9
2023-02-15T01:57:59.441Z,3.9
2023-02-15T01:59:07.772Z,3.9
2023-02-15T02:00:16.065Z,3.9
2023-02-15T02:01:24.644Z,4
2023-02-15T02:02:32.947Z,4
2023-02-15T02:03:41.244Z,4
2023-02-15T02:04:49.782Z,4
2023-02-15T02:05:58.071Z,4
2023-02-15T02:07:06.402Z,4
2023-02-15T02:08:14.924Z,3.6
2023-02-15T02:09:23.246Z,3.6
2023-02-15T02:10:31.551Z,3.6
2023-02-15T02:11:40.084Z,3.2
2023-02-15T02:12:48.410Z,3.2
2023-02-15T02:13:56.714Z,3.2
2023-02-15T02:15:05.269Z,3.3
2023-02-15T02:16:13.602Z,3.3
2023-02-15T02:17:21.880Z,3.3
2023-02-15T02:18:30.408Z,3.1
2023-02-15T02:19:38.747Z,3.1
2023-02-15T02:20:47.046Z,3.1
2023-02-15T02:21:55.595Z,3.8
2023-02-15T02:23:03.901Z,3.8
2023-02-15T02:24:12.215Z,3.8
2023-02-15T02:25:20.795Z,3.8
2023-02-15T02:26:29.059Z,3.8
2023-02-15T02:27:37.391Z,3.8
2023-02-15T02:28:45.919Z,4
2023-02-15T02:29:54.247Z,4
2023-02-15T02:31:02.644Z,4
2023-02-15T02:32:11.096Z,4.1
2023-02-15T02:33:19.408Z,4.1
2023-02-15T02:34:27.740Z,4.1
2023-02-15T02:35:36.278Z,4.7
2023-02-15T02:36:44.597Z,4.7
2023-02-15T02:37:52.930Z,4.7
2023-02-15T02:39:01.475Z,4.4
2023-02-15T02:40:09.794Z,4.4
2023-02-15T02:41:18.104Z,4.4
2023-02-15T02:42:26.644Z,4.4
2023-02-15T02:43:34.944Z,4.4
2023-02-15T02:44:43.276Z,4.4
2023-02-15T02:45:51.801Z,4.4
2023-02-15T02:47:00.143Z,4.4
2023-02-15T02:48:08.447Z,4.4
2023-02-15T02:49:16.959Z,4.3
2023-02-15T02:50:25.276Z,4.3
2023-02-15T02:51:33.602Z,4.3
2023-02-15T02:52:42.127Z,4.7
2023-02-15T02:53:50.445Z,4.7
2023-02-15T02:54:58.774Z,4.7
2023-02-15T02:56:07.291Z,4.2
2023-02-15T02:57:15.616Z,4.2
2023-02-15T02:58:23.947Z,4.2
2023-02-15T02:59:32.450Z,4.2
2023-02-15T03:00:40.789Z,4.2
2023-02-15T03:01:49.141Z,4.2
2023-02-15T03:02:57.711Z,4.1
2023-02-15T03:04:05.949Z,4.1
2023-02-15T03:05:14.263Z,4.1
2023-02-15T03:06:22.805Z,4.2
2023-02-15T03:07:31.134Z,4.2
2023-02-15T03:08:39.454Z,4.2
2023-02-15T03:09:47.977Z,4.5
2023-02-15T03:10:56.307Z,4.5
2023-02-15T03:12:04.644Z,4.5
2023-02-15T03:13:13.183Z,4.6
2023-02-15T03:14:21.504Z,4.6
2023-02-15T03:15:29.821Z,4.6
2023-02-15T03:16:38.356Z,4.6
2023-02-15T03:17:46.677Z,4.6
2023-02-15T03:18:55.017Z,4.6
2023-02-15T03:20:03.519Z,4.6
2023-02-15T03:21:11.824Z,4.6
2023-02-15T03:22:20.154Z,4.6
2023-02-15T03:23:28.688Z,5
2023-02-15T03:24:37.005Z,5
2023-02-15T03:25:45.339Z,5
2023-02-15T03:26:53.877Z,5.4
2023-02-15T03:28:02.214Z,5.4
2023-02-15T03:29:10.536Z,5.4
2023-02-15T03:30:19.135Z,6.6
2023-02-15T03:31:27.513Z,6.6
2023-02-15T03:32:35.681Z,6.6
2023-02-15T03:33:44.206Z,6.4
2023-02-15T03:34:52.545Z,6.4
2023-02-15T03:36:01.117Z,6.4
2023-02-15T03:37:09.364Z,6.7
2023-02-15T03:38:17.695Z,6.7
2023-02-15T03:39:26.016Z,6.7
2023-02-15T03:40:34.544Z,6.2
2023-02-15T03:41:42.865Z,6.2
2023-02-15T03:42:51.212Z,6.2
2023-02-15T03:43:59.743Z,6.9
2023-02-15T03:45:08.046Z,6.9
2023-02-15T03:46:16.411Z,6.9
2023-02-15T03:47:24.914Z,6.5
2023-02-15T03:48:33.235Z,6.5
2023-02-15T03:49:41.587Z,6.5
2023-02-15T03:50:50.119Z,6.1
2023-02-15T03:51:58.413Z,6.1
2023-02-15T03:53:06.744Z,6.1
2023-02-15T03:54:15.283Z,6.3
2023-02-15T03:55:23.630Z,6.3
2023-02-15T03:56:31.926Z,6.3
2023-02-15T03:57:40.455Z,6.3
2023-02-15T03:58:48.796Z,6.3
2023-02-15T03:59:57.127Z,6.3
2023-02-15T04:01:05.750Z,6.3
2023-02-15T04:02:13.978Z,6.3
2023-02-15T04:03:22.324Z,6.3
2023-02-15T04:04:30.832Z,6.9
2023-02-15T04:05:39.155Z,6.9
2023-02-15T04:06:47.514Z,6.9
2023-02-15T04:07:56.015Z,6.7
2023-02-15T04:09:04.336Z,6.7
2023-02-15T04:10:12.652Z,6.7
2023-02-15T04:11:21.169Z,5.8
2023-02-15T04:12:29.486Z,5.8
2023-02-15T04:13:37.810Z,5.8
2023-02-15T04:14:46.339Z,6
2023-02-15T04:15:54.659Z,6
2023-02-15T04:17:02.985Z,6
2023-02-15T04:18:11.528Z,5.2
2023-02-15T04:19:19.845Z,5.2
2023-02-15T04:20:28.154Z,5.2
2023-02-15T04:21:36.684Z,4.6
2023-02-15T04:22:45.034Z,4.6
2023-02-15T04:23:53.340Z,4.6
2023-02-15T04:25:01.867Z,4
2023-02-15T04:26:10.190Z,4
2023-02-15T04:27:18.512Z,4
2023-02-15T04:28:27.042Z,3.6
2023-02-15T04:29:35.425Z,3.6
2023-02-15T04:30:43.732Z,3.6
2023-02-15T04:31:52.364Z,3.5
2023-02-15T04:33:00.559Z,3.5
2023-02-15T04:34:08.901Z,3.5
2023-02-15T04:35:17.439Z,2.2
2023-02-15T04:36:25.759Z,2.2
2023-02-15T04:37:34.080Z,2.2
2023-02-15T04:38:42.624Z,2.3
2023-02-15T04:39:50.935Z,2.3
2023-02-15T04:40:59.258Z,2.3
2023-02-15T04:42:07.776Z,2.5
2023-02-15T04:43:16.098Z,2.5
2023-02-15T04:44:24.432Z,2.5
2023-02-15T04:45:33.115Z,1.5
2023-02-15T04:46:41.308Z,1.5
2023-02-15T04:47:49.634Z,1.5
2023-02-15T04:48:58.174Z,1.3
2023-02-15T04:50:06.504Z,1.3
2023-02-15T04:51:14.832Z,1.3
2023-02-15T04:52:23.380Z,1.6
2023-02-15T04:53:31.697Z,1.6
2023-02-15T04:54:40.056Z,1.6
2023-02-15T04:55:48.560Z,1.7
2023-02-15T04:56:56.919Z,1.7
2023-02-15T04:58:05.243Z,1.7
2023-02-15T04:59:13.786Z,2
2023-02-15T05:00:22.119Z,2
2023-02-15T05:01:30.600Z,2
2023-02-15T05:02:38.971Z,2.1
2023-02-15T05:03:47.310Z,2.1
2023-02-15T05:04:55.631Z,2.1
2023-02-15T05:06:04.279Z,2.9
2023-02-15T05:07:12.487Z,2.9
2023-02-15T05:08:20.813Z,2.9
2023-02-15T05:09:29.343Z,2.9
2023-02-15T05:10:37.684Z,2.9
2023-02-15T05:11:45.990Z,2.9
2023-02-15T05:12:54.521Z,3.6
2023-02-15T05:14:02.844Z,3.6
2023-02-15T05:15:11.174Z,3.6
2023-02-15T05:16:19.739Z,2.9
2023-02-15T05:17:28.049Z,2.9
2023-02-15T05:18:36.387Z,2.9
2023-02-15T05:19:44.926Z,2.7
2023-02-15T05:20:53.236Z,2.7
2023-02-15T05:22:01.557Z,2.7
2023-02-15T05:23:10.081Z,15.7
2023-02-15T05:24:18.444Z,15.7
2023-02-15T05:25:26.740Z,15.7
2023-02-15T05:26:35.304Z,12.8
2023-02-15T05:27:43.612Z,12.8
2023-02-15T05:28:51.955Z,12.8
2023-02-15T05:30:00.655Z,10.4
2023-02-15T05:31:09.094Z,10.4
2023-02-15T05:32:17.196Z,10.4
2023-02-15T05:33:25.666Z,16
2023-02-15T05:34:34.006Z,16
2023-02-15T05:35:42.336Z,16
2023-02-15T05:36:50.862Z,14.7
2023-02-15T05:37:59.188Z,14.7
2023-02-15T05:39:07.530Z,14.7
2023-02-15T05:40:16.101Z,16.799999
2023-02-15T05:41:24.415Z,16.799999
2023-02-15T05:42:32.762Z,16.799999
2023-02-15T05:43:41.299Z,20.299999
2023-02-15T05:44:49.624Z,20.299999
2023-02-15T05:45:57.999Z,20.299999
2023-02-15T05:47:06.490Z,18.299999
2023-02-15T05:48:14.810Z,18.299999
2023-02-15T05:49:23.151Z,18.299999
2023-02-15T05:50:31.669Z,19.700001
2023-02-15T05:51:40.029Z,19.700001
2023-02-15T05:52:49.322Z,19.700001
2023-02-15T05:53:56.871Z,20.700001
2023-02-15T05:55:05.196Z,20.700001
2023-02-15T05:56:13.573Z,20.700001
2023-02-15T05:57:22.202Z,19.700001
2023-02-15T05:58:30.610Z,19.700001
2023-02-15T05:59:38.963Z,19.700001
2023-02-15T06:00:47.513Z,12.3
2023-02-15T06:01:55.851Z,12.3
2023-02-15T06:03:04.219Z,12.3
2023-02-15T06:04:12.736Z,11.1
2023-02-15T06:05:21.076Z,11.1
2023-02-15T06:06:29.401Z,11.1
2023-02-15T06:07:37.943Z,9.1
2023-02-15T06:08:46.295Z,9.1
2023-02-15T06:09:54.629Z,9.1
2023-02-15T06:11:03.152Z,9
2023-02-15T06:12:11.484Z,9
2023-02-15T06:13:19.799Z,9
2023-02-15T06:14:28.348Z,7
2023-02-15T06:15:36.686Z,7
2023-02-15T06:16:45.012Z,7
2023-02-15T06:17:53.555Z,5.8
2023-02-15T06:19:01.888Z,5.8
2023-02-15T06:20:10.212Z,5.8
2023-02-15T06:21:18.731Z,4.3
2023-02-15T06:22:27.047Z,4.3
2023-02-15T06:23:35.386Z,4.3
2023-02-15T06:24:43.925Z,5.3
2023-02-15T06:25:52.264Z,5.3
2023-02-15T06:27:00.617Z,5.3
2023-02-15T06:28:09.122Z,5.4
2023-02-15T06:29:17.466Z,5.4
2023-02-15T06:30:25.877Z,5.4
2023-02-15T06:31:34.458Z,4.8
2023-02-15T06:32:42.690Z,4.8
2023-02-15T06:33:51.048Z,4.8
2023-02-15T06:34:59.582Z,6
2023-02-15T06:36:07.909Z,6
2023-02-15T06:37:16.242Z,6
2023-02-15T06:38:24.778Z,6.6
2023-02-15T06:39:33.114Z,6.6
2023-02-15T06:40:41.442Z,6.6
2023-02-15T06:41:49.987Z,6.8
2023-02-15T06:42:58.308Z,6.8
2023-02-15T06:44:06.635Z,6.8
2023-02-15T06:45:15.159Z,6.5
2023-02-15T06:46:23.531Z,6.5
2023-02-15T06:47:31.802Z,6.5
2023-02-15T06:48:40.333Z,7.3
2023-02-15T06:49:48.667Z,7.3
2023-02-15T06:50:56.996Z,7.3
2023-02-15T06:52:05.520Z,6.5
2023-02-15T06:53:13.847Z,6.5
2023-02-15T06:54:22.177Z,6.5
2023-02-15T06:55:30.696Z,6.2
2023-02-15T06:56:39.037Z,6.2
2023-02-15T06:57:48.897Z,6.2
2023-02-15T06:58:55.910Z,6.6
2023-02-15T07:00:04.230Z,6.6
2023-02-15T07:01:12.604Z,6.6
2023-02-15T07:02:21.143Z,6.8
2023-02-15T07:03:29.445Z,6.8
2023-02-15T07:04:37.844Z,6.8
2023-02-15T07:05:46.525Z,7.6
2023-02-15T07:06:54.860Z,7.6
2023-02-15T07:08:03.219Z,7.6
2023-02-15T07:09:11.776Z,6.4
2023-02-15T07:10:20.094Z,6.4
2023-02-15T07:11:28.415Z,6.4
2023-02-15T07:12:36.947Z,6.9
2023-02-15T07:13:45.271Z,6.9
2023-02-15T07:14:53.632Z,6.9
2023-02-15T07:16:02.470Z,6.7
2023-02-15T07:17:27.387Z,6.7
2023-02-15T07:18:18.856Z,6.7
2023-02-15T07:19:27.416Z,5.7
2023-02-15T07:20:37.452Z,5.7
2023-02-15T07:21:44.095Z,5.7
2023-02-15T07:22:52.640Z,6
2023-02-15T07:24:00.967Z,6
2023-02-15T07:25:09.325Z,6
2023-02-15T07:26:17.850Z,6.1
2023-02-15T07:27:26.221Z,6.1
2023-02-15T07:28:34.544Z,6.1
2023-02-15T07:29:43.081Z,5.7
2023-02-15T07:30:51.466Z,5.7
2023-02-15T07:31:59.789Z,5.7
2023-02-15T07:33:08.296Z,6.3
2023-02-15T07:34:16.683Z,6.3
2023-02-15T07:35:24.978Z,6.3
2023-02-15T07:36:33.556Z,6
2023-02-15T07:37:41.883Z,6
2023-02-15T07:38:50.216Z,6
2023-02-15T07:39:58.759Z,5.3
2023-02-15T07:41:07.114Z,5.3
2023-02-15T07:42:15.434Z,5.3
2023-02-15T07:43:23.957Z,5.9
2023-02-15T07:44:32.304Z,5.9
2023-02-15T07:45:40.632Z,5.9
2023-02-15T07:46:49.335Z,6
2023-02-15T07:47:57.504Z,6
2023-02-15T07:49:05.865Z,6
2023-02-15T07:50:14.420Z,6.1
2023-02-15T07:51:22.728Z,6.1
2023-02-15T07:52:31.093Z,6.1
2023-02-15T07:53:39.636Z,6
2023-02-15T07:54:47.965Z,6
2023-02-15T07:55:56.315Z,6
2023-02-15T07:57:04.857Z,6.2
2023-02-15T07:58:13.177Z,6.2
2023-02-15T07:59:21.526Z,6.2
2023-02-15T08:00:30.063Z,5.7
2023-02-15T08:01:38.392Z,5.7
2023-02-15T08:02:46.795Z,5.7
2023-02-15T08:03:55.427Z,5.9
2023-02-15T08:05:03.944Z,5.9
2023-02-15T08:06:12.314Z,5.9
2023-02-15T08:07:20.832Z,6
2023-02-15T08:08:29.183Z,6
2023-02-15T08:09:37.532Z,6
2023-02-15T08:10:46.054Z,5.8
2023-02-15T08:11:54.394Z,5.8
2023-02-15T08:13:02.738Z,5.8
2023-02-15T08:14:11.279Z,6.7
2023-02-15T08:15:19.615Z,6.7
2023-02-15T08:16:27.947Z,6.7
2023-02-15T08:17:36.495Z,5.8
2023-02-15T08:18:44.835Z,5.8
2023-02-15T08:19:53.197Z,5.8
2023-02-15T08:21:01.727Z,6.3
2023-02-15T08:22:10.084Z,6.3
2023-02-15T08:23:18.569Z,6.3
2023-02-15T08:24:27.126Z,6.1
2023-02-15T08:25:35.455Z,6.1
2023-02-15T08:26:43.832Z,6.1
2023-02-15T08:27:52.337Z,6.2
2023-02-15T08:29:00.667Z,6.2
2023-02-15T08:30:09.065Z,6.2
2023-02-15T08:31:17.666Z,6.8
2023-02-15T08:32:25.955Z,6.8
2023-02-15T08:33:34.224Z,6.8
2023-02-15T08:34:42.825Z,6.7
2023-02-15T08:35:51.126Z,6.7
2023-02-15T08:36:59.460Z,6.7
2023-02-15T08:38:08.049Z,5.6
2023-02-15T08:39:16.438Z,5.6
2023-02-15T08:40:24.768Z,5.6
2023-02-15T08:41:33.320Z,4.2
2023-02-15T08:42:41.666Z,4.2
2023-02-15T08:43:50.018Z,4.2
2023-02-15T08:44:58.583Z,3.4
2023-02-15T08:46:06.949Z,3.4
2023-02-15T08:47:15.246Z,3.4
2023-02-15T08:48:23.785Z,4.5
2023-02-15T08:49:32.205Z,4.5
2023-02-15T08:50:40.520Z,4.5
2023-02-15T08:51:49.110Z,3.7
2023-02-15T08:52:57.449Z,3.7
2023-02-15T08:54:05.810Z,3.7
2023-02-15T08:55:14.345Z,3
2023-02-15T08:56:22.668Z,3
2023-02-15T08:57:31.016Z,3
2023-02-15T08:58:39.548Z,3
2023-02-15T08:59:47.898Z,3
2023-02-15T09:00:56.267Z,3
2023-02-15T09:02:04.809Z,3
2023-02-15T09:03:13.154Z,3
2023-02-15T09:04:21.505Z,3
2023-02-15T09:05:30.034Z,3
2023-02-15T09:06:38.386Z,3
2023-02-15T09:07:46.757Z,3
2023-02-15T09:08:55.269Z,2.9
2023-02-15T09:10:03.616Z,2.9
2023-02-15T09:11:11.915Z,2.9
2023-02-15T09:12:20.484Z,2.8
2023-02-15T09:13:28.797Z,2.8
2023-02-15T09:14:37.130Z,2.8
2023-02-15T09:15:45.692Z,2.3
2023-02-15T09:16:54.064Z,2.3
2023-02-15T09:18:02.338Z,2.3
2023-02-15T09:19:10.913Z,2.3
2023-02-15T09:20:19.228Z,2.3
2023-02-15T09:21:27.558Z,2.3
2023-02-15T09:22:36.092Z,2.3
2023-02-15T09:23:44.434Z,2.3
2023-02-15T09:24:52.743Z,2.3
2023-02-15T09:26:01.310Z,2.5
2023-02-15T09:27:09.616Z,2.5
2023-02-15T09:28:17.948Z,2.5
2023-02-15T09:29:26.499Z,2.5
2023-02-15T09:30:34.940Z,2.5
2023-02-15T09:31:43.200Z,2.5
2023-02-15T09:32:51.713Z,2.2
2023-02-15T09:34:00.106Z,2.2
2023-02-15T09:35:08.420Z,2.2
2023-02-15T09:36:16.951Z,2.1
2023-02-15T09:37:25.294Z,2.1
2023-02-15T09:38:33.606Z,2.1
2023-02-15T09:39:42.180Z,2.1
2023-02-15T09:40:50.513Z,2.1
2023-02-15T09:41:58.867Z,2.1
2023-02-15T09:43:07.380Z,2.2
2023-02-15T09:44:15.715Z,2.2
2023-02-15T09:45:24.059Z,2.2
2023-02-15T09:46:32.591Z,1.9
2023-02-15T09:47:40.912Z,1.9
2023-02-15T09:48:49.239Z,1.9
2023-02-15T09:49:57.780Z,1.6
2023-02-15T09:51:06.134Z,1.6
2023-02-15T09:52:14.480Z,1.6
2023-02-15T09:53:22.995Z,1.9
2023-02-15T09:54:31.334Z,1.9
2023-02-15T09:55:39.671Z,1.9
2023-02-15T09:56:48.211Z,2.1
2023-02-15T09:57:56.582Z,2.1
2023-02-15T09:59:04.898Z,2.1
2023-02-15T10:00:13.458Z,1.6
2023-02-15T10:01:21.871Z,1.6
2023-02-15T10:02:30.142Z,1.6
2023-02-15T10:03:38.685Z,1.8
2023-02-15T10:04:47.048Z,1.8
2023-02-15T10:05:55.328Z,1.8
2023-02-15T10:07:03.859Z,2.2
2023-02-15T10:08:12.200Z,2.2
2023-02-15T10:09:20.526Z,2.2
2023-02-15T10:10:29.082Z,1.4
2023-02-15T10:11:37.431Z,1.4
2023-02-15T10:12:45.756Z,1.4
2023-02-15T10:13:54.394Z,1.8
2023-02-15T10:15:02.619Z,1.8
2023-02-15T10:16:10.954Z,1.8
2023-02-15T10:17:19.494Z,1.7
2023-02-15T10:18:27.831Z,1.7
2023-02-15T10:19:36.146Z,1.7
2023-02-15T10:20:44.703Z,1.7
2023-02-15T10:21:53.027Z,1.7
2023-02-15T10:23:01.365Z,1.7
2023-02-15T10:24:09.888Z,1.5
2023-02-15T10:25:18.219Z,1.5
2023-02-15T10:26:26.579Z,1.5
2023-02-15T10:27:35.107Z,1.6
2023-02-15T10:28:43.426Z,1.6
2023-02-15T10:29:51.808Z,1.6
2023-02-15T10:31:00.467Z,1.6
2023-02-15T10:32:08.766Z,1.6
2023-02-15T10:33:16.973Z,1.6
2023-02-15T10:34:25.501Z,1.7
2023-02-15T10:35:33.828Z,1.7
2023-02-15T10:36:42.184Z,1.7
2023-02-15T10:37:50.722Z,1.8
2023-02-15T10:38:59.045Z,1.8
2023-02-15T10:40:07.393Z,1.8
2023-02-15T10:41:15.947Z,1.8
2023-02-15T10:42:24.274Z,1.8
2023-02-15T10:43:32.607Z,1.8
2023-02-15T10:44:41.140Z,1.7
2023-02-15T10:45:49.572Z,1.7
2023-02-15T10:46:57.794Z,1.7
2023-02-15T10:48:06.340Z,1.8
2023-02-15T10:49:14.657Z,1.8
2023-02-15T10:50:22.981Z,1.8
2023-02-15T10:51:31.532Z,1.7
2023-02-15T10:52:39.839Z,1.7
2023-02-15T10:53:48.192Z,1.7
2023-02-15T10:54:56.715Z,1.9
2023-02-15T10:56:05.071Z,1.9
2023-02-15T10:57:13.438Z,1.9
2023-02-15T10:58:22.012Z,1.9
2023-02-15T10:59:30.368Z,1.9
2023-02-15T11:00:38.685Z,1.9
2023-02-15T11:01:47.339Z,1.9
2023-02-15T11:02:55.570Z,1.9
2023-02-15T11:04:03.888Z,1.9
2023-02-15T11:05:12.472Z,2.4
2023-02-15T11:06:20.789Z,2.4
2023-02-15T11:07:29.096Z,2.4
2023-02-15T11:08:37.624Z,2.8
2023-02-15T11:09:45.944Z,2.8
2023-02-15T11:10:54.307Z,2.8
2023-02-15T11:12:02.823Z,2.5
2023-02-15T11:13:11.156Z,2.5
2023-02-15T11:14:19.474Z,2.5
2023-02-15T11:15:28.013Z,2.5
2023-02-15T11:16:36.342Z,2.5
2023-02-15T11:17:44.707Z,2.5
2023-02-15T11:18:53.227Z,2.1
2023-02-15T11:20:01.636Z,2.1
2023-02-15T11:21:10.474Z,2.1
2023-02-15T11:22:19.008Z,2.2
2023-02-15T11:23:27.359Z,2.2
2023-02-15T11:24:35.701Z,2.2
2023-02-15T11:25:44.222Z,3.5
2023-02-15T11:26:52.555Z,3.5
2023-02-15T11:28:00.918Z,3.5
2023-02-15T11:29:09.447Z,2.9
2023-02-15T11:30:17.907Z,2.9
2023-02-15T11:31:26.262Z,2.9
2023-02-15T11:32:34.703Z,3.1
2023-02-15T11:33:43.058Z,3.1
2023-02-15T11:34:51.353Z,3.1
2023-02-15T11:35:59.884Z,3
2023-02-15T11:37:08.209Z,3
2023-02-15T11:38:16.528Z,3
2023-02-15T11:39:25.087Z,3.7
2023-02-15T11:40:33.437Z,3.7
2023-02-15T11:41:41.780Z,3.7
2023-02-15T11:42:50.320Z,3.3
2023-02-15T11:43:58.640Z,3.3
2023-02-15T11:45:06.984Z,3.3
2023-02-15T11:46:15.543Z,3.8
2023-02-15T11:47:23.867Z,3.8
2023-02-15T11:48:32.206Z,3.8
2023-02-15T11:49:40.768Z,4.4
2023-02-15T11:50:49.080Z,4.4
2023-02-15T11:51:57.429Z,4.4
2023-02-15T11:53:05.955Z,3.7
2023-02-15T11:54:14.295Z,3.7
2023-02-15T11:55:22.610Z,3.7
2023-02-15T11:56:31.169Z,4.5
2023-02-15T11:57:39.503Z,4.5
2023-02-15T11:58:47.840Z,4.5
2023-02-15T11:59:56.385Z,4.7
2023-02-15T12:01:04.977Z,4.7
2023-02-15T12:02:13.047Z,4.7
2023-02-15T12:03:23.481Z,4
2023-02-15T12:04:29.914Z,4
2023-02-15T12:05:38.274Z,4
2023-02-15T12:06:46.795Z,3.6
2023-02-15T12:07:55.124Z,3.6
2023-02-15T12:09:03.457Z,3.6
2023-02-15T12:10:12.014Z,3
2023-02-15T12:11:20.344Z,3
2023-02-15T12:12:28.687Z,3
2023-02-15T12:13:37.227Z,3.4
2023-02-15T12:14:45.544Z,3.4
2023-02-15T12:15:53.917Z,3.4
2023-02-15T12:17:02.499Z,2.8
2023-02-15T12:18:10.810Z,2.8
2023-02-15T12:19:19.106Z,2.8
2023-02-15T12:20:27.644Z,2.7
2023-02-15T12:21:36.135Z,2.7
2023-02-15T12:22:44.313Z,2.7
2023-02-15T12:23:52.868Z,2.6
2023-02-15T12:25:01.199Z,2.6
2023-02-15T12:26:09.504Z,2.6
2023-02-15T12:27:18.035Z,2.7
2023-02-15T12:28:26.370Z,2.7
2023-02-15T12:29:34.691Z,2.7
2023-02-15T12:30:43.248Z,2.2
2023-02-15T12:31:51.678Z,2.2
2023-02-15T12:32:59.950Z,2.2
2023-02-15T12:34:08.491Z,3
2023-02-15T12:35:16.838Z,3
2023-02-15T12:36:25.152Z,3
2023-02-15T12:37:33.716Z,3.7
2023-02-15T12:38:42.009Z,3.7
2023-02-15T12:39:50.337Z,3.7
2023-02-15T12:40:58.906Z,3.8
2023-02-15T12:42:07.253Z,3.8
2023-02-15T12:43:15.576Z,3.8
2023-02-15T12:44:24.123Z,4.1
2023-02-15T12:45:32.489Z,4.1
2023-02-15T12:46:40.929Z,4.1
2023-02-15T12:47:49.366Z,4.3
2023-02-15T12:48:57.700Z,4.3
2023-02-15T12:50:12.074Z,4.3
2023-02-15T12:51:14.607Z,4.4
2023-02-15T12:52:22.949Z,4.4
2023-02-15T12:53:31.309Z,4.4
2023-02-15T12:54:39.815Z,4.8
2023-02-15T12:55:48.140Z,4.8
2023-02-15T12:56:56.768Z,4.8
2023-02-15T12:58:05.305Z,4.8
2023-02-15T12:59:13.631Z,4.8
2023-02-15T13:00:21.974Z,4.8
2023-02-15T13:01:30.489Z,5.2
2023-02-15T13:02:38.828Z,5.2
2023-02-15T13:03:47.175Z,5.2
2023-02-15T13:04:55.707Z,5.2
2023-02-15T13:06:04.045Z,5.2
2023-02-15T13:07:12.395Z,5.2
2023-02-15T13:08:20.966Z,5.5
2023-02-15T13:09:29.335Z,5.5
2023-02-15T13:10:37.640Z,5.5
2023-02-15T13:11:46.196Z,6
2023-02-15T13:12:54.511Z,6
2023-02-15T13:14:02.880Z,6
2023-02-15T13:15:11.407Z,5.6
2023-02-15T13:16:19.773Z,5.6
2023-02-15T13:17:28.094Z,5.6
2023-02-15T13:18:36.610Z,6.6
2023-02-15T13:19:44.948Z,6.6
2023-02-15T13:20:53.301Z,6.6
2023-02-15T13:22:01.813Z,6.3
2023-02-15T13:23:10.143Z,6.3
2023-02-15T13:24:18.498Z,6.3
2023-02-15T13:25:27.153Z,6.9
2023-02-15T13:26:35.360Z,6.9
2023-02-15T13:27:43.728Z,6.9
2023-02-15T13:28:52.266Z,6.8
2023-02-15T13:30:00.635Z,6.8
2023-02-15T13:31:08.974Z,6.8
2023-02-15T13:32:17.567Z,8
2023-02-15T13:33:25.791Z,8
2023-02-15T13:34:34.129Z,8
2023-02-15T13:35:42.666Z,7.3
2023-02-15T13:36:50.969Z,7.3
2023-02-15T13:37:59.317Z,7.3
2023-02-15T13:39:07.869Z,8.1
2023-02-15T13:40:16.180Z,8.1
2023-02-15T13:41:24.539Z,8.1
2023-02-15T13:42:33.069Z,6.9
2023-02-15T13:43:41.413Z,6.9
2023-02-15T13:44:49.762Z,6.9
2023-02-15T13:45:58.374Z,7.4
2023-02-15T13:47:06.623Z,7.4
2023-02-15T13:48:14.961Z,7.4
2023-02-15T13:49:23.556Z,7.2
2023-02-15T13:50:31.884Z,7.2
2023-02-15T13:51:40.229Z,7.2
2023-02-15T13:52:48.746Z,6.6
2023-02-15T13:53:57.077Z,6.6
2023-02-15T13:55:05.416Z,6.6
2023-02-15T13:56:13.968Z,6.6
2023-02-15T13:57:22.419Z,6.6
2023-02-15T13:58:30.668Z,6.6
2023-02-15T13:59:39.191Z,6.1
2023-02-15T14:00:47.636Z,6.1
2023-02-15T14:01:55.849Z,6.1
2023-02-15T14:03:04.398Z,6.3
2023-02-15T14:04:12.834Z,6.3
2023-02-15T14:05:22.679Z,6.3
2023-02-15T14:06:29.622Z,5.6
2023-02-15T14:07:37.953Z,5.6
2023-02-15T14:08:46.275Z,5.6
2023-02-15T14:09:54.824Z,12.2
2023-02-15T14:11:03.522Z,12.2
2023-02-15T14:12:11.475Z,12.2
2023-02-15T14:13:20.044Z,12.7
2023-02-15T14:14:28.345Z,12.7
2023-02-15T14:15:36.665Z,12.7
2023-02-15T14:16:52.002Z,21.5
2023-02-15T14:17:53.590Z,21.5
2023-02-15T14:19:01.911Z,21.5
2023-02-15T14:20:11.467Z,9.6
2023-02-15T14:21:18.766Z,9.6
2023-02-15T14:22:27.106Z,9.6
2023-02-15T14:23:35.726Z,19.299999
2023-02-15T14:24:44.005Z,19.299999
2023-02-15T14:25:52.321Z,19.299999
2023-02-15T14:27:00.880Z,15.5
2023-02-15T14:28:09.217Z,15.5
2023-02-15T14:29:17.591Z,15.5
2023-02-15T14:30:26.227Z,10.4
2023-02-15T15:03:46.134Z,0
2023-02-15T15:04:54.399Z,0
2023-02-15T15:06:05.278Z,0
2023-02-15T15:07:11.290Z,12.6
2023-02-15T15:08:19.628Z,12.6
2023-02-15T15:09:27.987Z,12.6
2023-02-15T15:10:36.524Z,11.5
2023-02-15T15:11:44.928Z,11.5
2023-02-15T15:12:53.194Z,11.5
2023-02-15T15:14:01.755Z,11.3
2023-02-15T15:15:10.085Z,11.3
2023-02-15T15:16:18.476Z,11.3
2023-02-15T15:17:26.958Z,10.9
2023-02-15T15:18:35.313Z,10.9
2023-02-15T15:19:51.357Z,10.9
2023-02-15T15:20:52.412Z,10.1
2023-02-15T15:22:00.557Z,10.1
2023-02-15T15:23:08.908Z,10.1
2023-02-15T15:24:17.474Z,9.1
2023-02-15T15:25:25.799Z,9.1
2023-02-15T15:26:34.149Z,9.1
2023-02-15T15:27:42.672Z,8.8
2023-02-15T15:28:51.000Z,8.8
2023-02-15T15:29:59.381Z,8.8
2023-02-15T15:31:07.949Z,9.1
2023-02-15T15:32:16.364Z,9.1
2023-02-15T15:33:24.532Z,9.1
2023-02-15T15:34:33.105Z,8.4
2023-02-15T15:35:41.438Z,8.4
2023-02-15T15:36:49.757Z,8.4
2023-02-15T15:37:58.285Z,9.2
2023-02-15T15:39:06.646Z,9.2
2023-02-15T15:40:14.978Z,9.2
2023-02-15T15:41:23.537Z,10.8
2023-02-15T15:42:31.854Z,10.8
2023-02-15T15:43:40.187Z,10.8
2023-02-15T15:44:48.731Z,12.8
2023-02-15T15:45:57.118Z,12.8
2023-02-15T15:47:05.407Z,12.8
2023-02-15T15:48:13.968Z,21.200001
2023-02-15T15:49:22.282Z,21.200001
2023-02-15T15:50:30.637Z,21.200001
2023-02-15T15:51:39.194Z,20.799999
2023-02-15T15:52:47.507Z,20.799999
2023-02-15T15:53:55.834Z,20.799999
2023-02-15T15:55:04.363Z,10.6
2023-02-15T15:56:12.691Z,10.6
2023-02-15T15:57:21.027Z,10.6
2023-02-15T15:58:29.574Z,11
2023-02-15T15:59:37.930Z,11
2023-02-15T16:00:46.262Z,11
2023-02-15T16:01:54.868Z,10.7
2023-02-15T16:03:03.202Z,10.7
2023-02-15T16:04:11.486Z,10.7
2023-02-15T16:05:20.038Z,9.4
2023-02-15T16:06:28.364Z,9.4
2023-02-15T16:07:36.713Z,9.4
2023-02-15T16:08:45.238Z,9.2
2023-02-15T16:09:53.567Z,9.2
2023-02-15T16:11:01.908Z,9.2
2023-02-15T16:12:10.464Z,9.3